Time,TemperatureF,DewpointF,PressureIn,WindDirection,WindDirectionDegrees,WindSpeedMPH,WindSpeedGustMPH,Humidity,HourlyPrecipIn,Conditions,Clouds,dailyrainin,SoftwareType,DateUTC
2013-03-07 00:11:00,34.1,30.0,30.14,NE,43,0.0,-999.0,84,-99.99,,,0.00,weatherlink.com 1.10,2013-03-07 05:11:00,
2013-03-07 00:26:00,34.0,30.0,30.14,NE,43,0.0,-999.0,84,-99.99,,,0.00,weatherlink.com 1.10,2013-03-07 05:26:00,
2013-03-07 00:41:00,34.0,30.0,30.14,NE,43,0.0,-999.0,84,-99.99,,,0.00,weatherlink.com 1.10,2013-03-07 05:41:00,
2013-03-07 00:56:00,33.8,30.0,30.15,NE,43,0.0,-999.0,85,-99.99,,,0.00,weatherlink.com 1.10,2013-03-07 05:56:00,
2013-03-07 01:11:00,33.7,30.0,30.14,NE,43,0.0,-999.0,85,-99.99,,,0.00,weatherlink.com 1.10,2013-03-07 06:11:00,
2013-03-07 01:26:00,33.5,30.0,30.15,NE,43,0.0,-999.0,85,-99.99,,,0.00,weatherlink.com 1.10,2013-03-07 06:26:00,
2013-03-07 01:41:00,33.4,29.0,30.15,NE,43,0.0,-999.0,85,-99.99,,,0.00,weatherlink.com 1.10,2013-03-07 06:41:00,
2013-03-07 01:56:00,33.4,29.0,30.15,NE,43,0.0,-999.0,85,-99.99,,,0.00,weatherlink.com 1.10,2013-03-07 06:56:00,
2013-03-07 02:11:00,33.5,30.0,30.15,NE,43,0.0,-999.0,85,-99.99,,,0.00,weatherlink.com 1.10,2013-03-07 07:11:00,
2013-03-07 02:26:00,33.4,29.0,30.15,NE,43,0.0,-999.0,85,-99.99,,,0.00,weatherlink.com 1.10,2013-03-07 07:26:00,
2013-03-07 02:41:00,33.1,29.0,30.15,NE,43,0.0,-999.0,85,-99.99,,,0.00,weatherlink.com 1.10,2013-03-07 07:41:00,
2013-03-07 02:56:00,33.1,29.0,30.15,NE,43,0.0,-999.0,85,-99.99,,,0.00,weatherlink.com 1.10,2013-03-07 07:56:00,
2013-03-07 03:11:00,32.9,29.0,30.15,NE,43,0.0,-999.0,86,-99.99,,,0.00,weatherlink.com 1.10,2013-03-07 08:11:00,
2013-03-07 03:26:00,32.8,29.0,30.15,NE,43,0.0,-999.0,86,-99.99,,,0.00,weatherlink.com 1.10,2013-03-07 08:26:00,
2013-03-07 03:41:00,32.8,29.0,30.16,NE,43,0.0,-999.0,86,-99.99,,,0.00,weatherlink.com 1.10,2013-03-07 08:41:00,
2013-03-07 03:56:00,32.8,29.0,30.16,NE,43,0.0,-999.0,87,-99.99,,,0.00,weatherlink.com 1.10,2013-03-07 08:56:00,
2013-03-07 04:11:00,32.7,29.0,30.16,NE,43,0.0,-999.0,87,-99.99,,,0.00,weatherlink.com 1.10,2013-03-07 09:11:00,
2013-03-07 04:26:00,32.7,29.0,30.16,NE,43,0.0,-999.0,87,-99.99,,,0.00,weatherlink.com 1.10,2013-03-07 09:26:00,
2013-03-07 04:56:00,32.7,29.0,30.16,NE,43,0.0,-999.0,87,-99.99,,,0.00,weatherlink.com 1.10,2013-03-07 09:56:00,
2013-03-07 05:11:00,32.7,30.0,30.16,NE,43,0.0,-999.0,88,-99.99,,,0.00,weatherlink.com 1.10,2013-03-07 10:11:00,
2013-03-07 05:26:00,32.5,29.0,30.16,NE,43,0.0,-999.0,88,-99.99,,,0.00,weatherlink.com 1.10,2013-03-07 10:26:00,
2013-03-07 05:40:00,32.7,30.0,30.16,NE,43,0.0,-999.0,88,-99.99,,,0.00,weatherlink.com 1.10,2013-03-07 10:40:00,
2013-03-07 05:55:00,32.7,30.0,30.16,NE,43,0.0,-999.0,88,-99.99,,,0.00,weatherlink.com 1.10,2013-03-07 10:55:00,
2013-03-07 06:10:00,32.8,30.0,30.17,NE,43,0.0,-999.0,88,-99.99,,,0.00,weatherlink.com 1.10,2013-03-07 11:10:00,
2013-03-07 06:25:00,32.8,30.0,30.17,NE,43,0.0,-999.0,89,-99.99,,,0.00,weatherlink.com 1.10,2013-03-07 11:25:00,
2013-03-07 06:56:00,32.8,30.0,30.18,NE,43,0.0,-999.0,89,-99.99,,,0.00,weatherlink.com 1.10,2013-03-07 11:56:00,
2013-03-07 07:11:00,32.8,30.0,30.18,NE,43,0.0,-999.0,89,-99.99,,,0.00,weatherlink.com 1.10,2013-03-07 12:11:00,
2013-03-07 07:26:00,32.9,30.0,30.19,NE,43,0.0,-999.0,89,-99.99,,,0.00,weatherlink.com 1.10,2013-03-07 12:26:00,
2013-03-07 07:41:00,32.9,30.0,30.19,NNE,23,0.0,-999.0,89,-99.99,,,0.00,weatherlink.com 1.10,2013-03-07 12:41:00,
2013-03-07 07:56:00,32.9,30.0,30.20,NNE,15,0.0,-999.0,89,-99.99,,,0.00,weatherlink.com 1.10,2013-03-07 12:56:00,
2013-03-07 08:11:00,33.1,30.0,30.20,NE,40,0.0,-999.0,89,-99.99,,,0.00,weatherlink.com 1.10,2013-03-07 13:11:00,
2013-03-07 08:26:00,33.2,30.0,30.20,NNE,22,0.0,-999.0,89,-99.99,,,0.00,weatherlink.com 1.10,2013-03-07 13:26:00,
2013-03-07 08:56:00,33.4,31.0,30.20,NNE,19,0.0,-999.0,89,-99.99,,,0.00,weatherlink.com 1.10,2013-03-07 13:56:00,
2013-03-07 09:11:00,33.2,30.0,30.21,NNE,21,0.0,-999.0,89,-99.99,,,0.00,weatherlink.com 1.10,2013-03-07 14:11:00,
2013-03-07 09:26:00,33.2,30.0,30.21,NNE,21,0.0,-999.0,89,-99.99,,,0.00,weatherlink.com 1.10,2013-03-07 14:26:00,
2013-03-07 09:56:00,33.7,31.0,30.22,NNE,21,1.0,-999.0,90,-99.99,,,0.00,weatherlink.com 1.10,2013-03-07 14:56:00,
2013-03-07 10:11:00,33.5,31.0,30.22,NNE,21,0.0,-999.0,90,-99.99,,,0.00,weatherlink.com 1.10,2013-03-07 15:11:00,
2013-03-07 10:26:00,33.7,31.0,30.22,NNE,21,0.0,-999.0,90,-99.99,,,0.00,weatherlink.com 1.10,2013-03-07 15:26:00,
2013-03-07 10:41:00,33.8,31.0,30.22,North,9,0.0,-999.0,90,-99.99,,,0.00,weatherlink.com 1.10,2013-03-07 15:41:00,
2013-03-07 10:56:00,34.1,32.0,30.23,North,9,0.0,-999.0,90,-99.99,,,0.00,weatherlink.com 1.10,2013-03-07 15:56:00,
2013-03-07 11:26:00,34.4,31.0,30.23,North,360,0.0,-999.0,88,-99.99,,,0.00,weatherlink.com 1.10,2013-03-07 16:26:00,
2013-03-07 11:41:00,34.9,32.0,30.23,NNE,22,0.0,-999.0,88,-99.99,,,0.00,weatherlink.com 1.10,2013-03-07 16:41:00,
2013-03-07 11:56:00,34.9,31.0,30.23,North,350,0.0,-999.0,86,-99.99,,,0.00,weatherlink.com 1.10,2013-03-07 16:56:00,
2013-03-07 12:11:00,35.0,31.0,30.24,North,5,2.0,-999.0,84,-99.99,,,0.00,weatherlink.com 1.10,2013-03-07 17:11:00,
2013-03-07 12:26:00,35.0,31.0,30.23,North,5,0.0,-999.0,84,-99.99,,,0.00,weatherlink.com 1.10,2013-03-07 17:26:00,
2013-03-07 12:41:00,35.2,31.0,30.23,NNE,12,3.0,-999.0,83,-99.99,,,0.00,weatherlink.com 1.10,2013-03-07 17:41:00,
2013-03-07 12:56:00,35.9,31.0,30.23,NNE,28,1.0,-999.0,81,-99.99,,,0.00,weatherlink.com 1.10,2013-03-07 17:56:00,
2013-03-07 13:11:00,36.5,30.0,30.22,NNE,16,0.0,-999.0,78,-99.99,,,0.00,weatherlink.com 1.10,2013-03-07 18:11:00,
2013-03-07 13:26:00,36.9,29.0,30.22,NNE,30,0.0,-999.0,74,-99.99,,,0.00,weatherlink.com 1.10,2013-03-07 18:26:00,
2013-03-07 13:41:00,37.2,29.0,30.22,NW,321,0.0,-999.0,72,-99.99,,,0.00,weatherlink.com 1.10,2013-03-07 18:41:00,
2013-03-07 13:56:00,36.8,28.0,30.22,NNE,13,0.0,-999.0,71,-99.99,,,0.00,weatherlink.com 1.10,2013-03-07 18:56:00,
2013-03-07 14:11:00,36.6,29.0,30.22,NE,40,3.0,-999.0,73,-99.99,,,0.00,weatherlink.com 1.10,2013-03-07 19:11:00,
2013-03-07 14:41:00,37.6,28.0,30.22,NE,42,6.0,-999.0,68,-99.99,,,0.00,weatherlink.com 1.10,2013-03-07 19:41:00,
2013-03-07 14:56:00,37.9,28.0,30.23,NE,42,0.0,-999.0,67,-99.99,,,0.00,weatherlink.com 1.10,2013-03-07 19:56:00,
2013-03-07 15:11:00,38.0,27.0,30.23,NNE,30,0.0,-999.0,64,-99.99,,,0.00,weatherlink.com 1.10,2013-03-07 20:11:00,
2013-03-07 15:26:00,38.5,28.0,30.23,NE,37,2.0,-999.0,65,-99.99,,,0.00,weatherlink.com 1.10,2013-03-07 20:26:00,
2013-03-07 15:41:00,38.6,27.0,30.23,NNE,30,2.0,-999.0,63,-99.99,,,0.00,weatherlink.com 1.10,2013-03-07 20:41:00,
2013-03-07 15:56:00,38.9,26.0,30.23,NNE,19,1.0,-999.0,60,-99.99,,,0.00,weatherlink.com 1.10,2013-03-07 20:56:00,
2013-03-07 16:11:00,39.1,26.0,30.23,NNE,15,2.0,-999.0,60,-99.99,,,0.00,weatherlink.com 1.10,2013-03-07 21:11:00,
2013-03-07 16:26:00,38.6,26.0,30.23,NNE,27,0.0,-999.0,62,-99.99,,,0.00,weatherlink.com 1.10,2013-03-07 21:26:00,
2013-03-07 16:41:00,37.9,27.0,30.24,NE,51,0.0,-999.0,64,-99.99,,,0.00,weatherlink.com 1.10,2013-03-07 21:41:00,
2013-03-07 16:56:00,37.3,26.0,30.24,NE,42,0.0,-999.0,64,-99.99,,,0.00,weatherlink.com 1.10,2013-03-07 21:56:00,
2013-03-07 17:11:00,37.2,26.0,30.24,NE,47,0.0,-999.0,64,-99.99,,,0.00,weatherlink.com 1.10,2013-03-07 22:11:00,
2013-03-07 17:26:00,37.0,26.0,30.25,NNE,26,0.0,-999.0,64,-99.99,,,0.00,weatherlink.com 1.10,2013-03-07 22:26:00,
2013-03-07 17:41:00,36.9,26.0,30.25,NNE,23,0.0,-999.0,65,-99.99,,,0.00,weatherlink.com 1.10,2013-03-07 22:41:00,
2013-03-07 17:56:00,36.5,26.0,30.26,NNE,23,0.0,-999.0,67,-99.99,,,0.00,weatherlink.com 1.10,2013-03-07 22:56:00,
2013-03-07 18:11:00,35.8,26.0,30.27,NNE,23,0.0,-999.0,68,-99.99,,,0.00,weatherlink.com 1.10,2013-03-07 23:11:00,
2013-03-07 18:26:00,35.2,26.0,30.27,NNE,23,0.0,-999.0,70,-99.99,,,0.00,weatherlink.com 1.10,2013-03-07 23:26:00,
2013-03-07 18:41:00,34.4,26.0,30.27,NNE,23,0.0,-999.0,71,-99.99,,,0.00,weatherlink.com 1.10,2013-03-07 23:41:00,
2013-03-07 18:56:00,33.7,26.0,30.27,NNE,23,0.0,-999.0,72,-99.99,,,0.00,weatherlink.com 1.10,2013-03-07 23:56:00,
2013-03-07 19:11:00,32.9,25.0,30.27,NNE,23,0.0,-999.0,72,-99.99,,,0.00,weatherlink.com 1.10,2013-03-08 00:11:00,
2013-03-07 19:26:00,32.2,25.0,30.27,NNE,23,0.0,-999.0,74,-99.99,,,0.00,weatherlink.com 1.10,2013-03-08 00:26:00,
2013-03-07 19:41:00,31.6,25.0,30.28,NNE,23,0.0,-999.0,76,-99.99,,,0.00,weatherlink.com 1.10,2013-03-08 00:41:00,
2013-03-07 19:56:00,31.2,25.0,30.28,NNE,23,0.0,-999.0,77,-99.99,,,0.00,weatherlink.com 1.10,2013-03-08 00:56:00,
2013-03-07 20:11:00,31.6,26.0,30.29,NNE,23,0.0,-999.0,79,-99.99,,,0.00,weatherlink.com 1.10,2013-03-08 01:11:00,
2013-03-07 20:26:00,31.8,26.0,30.29,NNE,23,0.0,-999.0,80,-99.99,,,0.00,weatherlink.com 1.10,2013-03-08 01:26:00,
2013-03-07 20:41:00,32.2,27.0,30.29,NNE,23,0.0,-999.0,80,-99.99,,,0.00,weatherlink.com 1.10,2013-03-08 01:41:00,
2013-03-07 20:56:00,32.5,27.0,30.29,NNE,23,0.0,-999.0,80,-99.99,,,0.00,weatherlink.com 1.10,2013-03-08 01:56:00,
2013-03-07 21:11:00,32.5,27.0,30.29,NNE,23,0.0,-999.0,80,-99.99,,,0.00,weatherlink.com 1.10,2013-03-08 02:11:00,
2013-03-07 21:26:00,32.4,27.0,30.29,NNE,23,0.0,-999.0,81,-99.99,,,0.00,weatherlink.com 1.10,2013-03-08 02:26:00,
2013-03-07 21:41:00,32.4,27.0,30.29,NNE,23,0.0,-999.0,81,-99.99,,,0.00,weatherlink.com 1.10,2013-03-08 02:41:00,
2013-03-07 21:56:00,31.9,27.0,30.29,NNE,24,0.0,-999.0,83,-99.99,,,0.00,weatherlink.com 1.10,2013-03-08 02:56:00,
2013-03-07 22:11:00,31.6,27.0,30.29,NNE,24,0.0,-999.0,84,-99.99,,,0.00,weatherlink.com 1.10,2013-03-08 03:11:00,
2013-03-07 22:26:00,31.5,28.0,30.29,NNE,24,0.0,-999.0,86,-99.99,,,0.00,weatherlink.com 1.10,2013-03-08 03:26:00,
2013-03-07 22:41:00,31.2,28.0,30.29,NNE,24,0.0,-999.0,87,-99.99,,,0.00,weatherlink.com 1.10,2013-03-08 03:41:00,
2013-03-07 22:56:00,30.9,28.0,30.29,NNE,24,0.0,-999.0,88,-99.99,,,0.00,weatherlink.com 1.10,2013-03-08 03:56:00,
2013-03-07 23:11:00,30.4,27.0,30.29,NNE,24,0.0,-999.0,88,-99.99,,,0.00,weatherlink.com 1.10,2013-03-08 04:11:00,
2013-03-07 23:26:00,29.8,27.0,30.29,NNE,24,0.0,-999.0,88,-99.99,,,0.00,weatherlink.com 1.10,2013-03-08 04:26:00,
2013-03-07 23:41:00,29.4,26.0,30.29,NNE,24,0.0,-999.0,88,-99.99,,,0.00,weatherlink.com 1.10,2013-03-08 04:41:00,
2013-03-07 23:56:00,29.4,27.0,30.29,NNE,24,0.0,-999.0,89,-99.99,,,0.00,weatherlink.com 1.10,2013-03-08 04:56:00,